sensor_id;sensor_type;location;lat;lon;timestamp;P1;durP1;ratioP1;P2;durP2;ratioP2
40122;SDS011;25832;45.490;4.912;2023-08-20T00:00:11;8.15;;;5.68;;
40122;SDS011;25832;45.490;4.912;2023-08-20T00:02:38;11.07;;;4.95;;
40122;SDS011;25832;45.490;4.912;2023-08-20T00:05:07;11.50;;;6.03;;
40122;SDS011;25832;45.490;4.912;2023-08-20T00:07:34;12.07;;;6.20;;
40122;SDS011;25832;45.490;4.912;2023-08-20T00:10:00;11.63;;;5.18;;
40122;SDS011;25832;45.490;4.912;2023-08-20T00:12:28;13.93;;;5.90;;
40122;SDS011;25832;45.490;4.912;2023-08-20T00:15:02;8.48;;;5.40;;
40122;SDS011;25832;45.490;4.912;2023-08-20T00:17:32;9.63;;;5.18;;
40122;SDS011;25832;45.490;4.912;2023-08-20T00:19:59;6.30;;;5.22;;
40122;SDS011;25832;45.490;4.912;2023-08-20T00:22:25;9.85;;;5.50;;
40122;SDS011;25832;45.490;4.912;2023-08-20T00:24:54;8.30;;;5.63;;
40122;SDS011;25832;45.490;4.912;2023-08-20T00:27:20;8.73;;;5.28;;
40122;SDS011;25832;45.490;4.912;2023-08-20T00:29:46;7.85;;;5.28;;
40122;SDS011;25832;45.490;4.912;2023-08-20T00:32:12;11.35;;;5.78;;
40122;SDS011;25832;45.490;4.912;2023-08-20T00:34:39;12.52;;;6.07;;
40122;SDS011;25832;45.490;4.912;2023-08-20T00:37:05;9.30;;;5.35;;
40122;SDS011;25832;45.490;4.912;2023-08-20T00:39:30;9.70;;;5.65;;
40122;SDS011;25832;45.490;4.912;2023-08-20T00:41:56;8.27;;;5.18;;
40122;SDS011;25832;45.490;4.912;2023-08-20T00:44:23;7.00;;;4.88;;
40122;SDS011;25832;45.490;4.912;2023-08-20T00:46:48;8.07;;;4.72;;
40122;SDS011;25832;45.490;4.912;2023-08-20T00:49:16;9.40;;;4.97;;
40122;SDS011;25832;45.490;4.912;2023-08-20T00:51:42;10.55;;;6.13;;
40122;SDS011;25832;45.490;4.912;2023-08-20T00:54:08;7.25;;;5.53;;
40122;SDS011;25832;45.490;4.912;2023-08-20T00:56:34;14.45;;;6.22;;
40122;SDS011;25832;45.490;4.912;2023-08-20T00:59:00;7.80;;;6.18;;
40122;SDS011;25832;45.490;4.912;2023-08-20T01:01:26;7.75;;;5.35;;
40122;SDS011;25832;45.490;4.912;2023-08-20T01:03:52;12.50;;;5.70;;
40122;SDS011;25832;45.490;4.912;2023-08-20T01:09:48;8.02;;;5.38;;
40122;SDS011;25832;45.490;4.912;2023-08-20T01:12:22;9.98;;;5.90;;
40122;SDS011;25832;45.490;4.912;2023-08-20T01:14:49;7.93;;;6.13;;
40122;SDS011;25832;45.490;4.912;2023-08-20T01:17:15;10.77;;;5.90;;
40122;SDS011;25832;45.490;4.912;2023-08-20T01:19:40;7.40;;;6.53;;
40122;SDS011;25832;45.490;4.912;2023-08-20T01:30:47;11.43;;;7.18;;
40122;SDS011;25832;45.490;4.912;2023-08-20T01:33:14;8.07;;;6.43;;
40122;SDS011;25832;45.490;4.912;2023-08-20T01:35:40;6.80;;;5.70;;
40122;SDS011;25832;45.490;4.912;2023-08-20T01:38:06;8.52;;;6.20;;
40122;SDS011;25832;45.490;4.912;2023-08-20T01:40:32;10.23;;;6.28;;
40122;SDS011;25832;45.490;4.912;2023-08-20T01:42:58;12.93;;;6.78;;
40122;SDS011;25832;45.490;4.912;2023-08-20T01:45:24;9.50;;;6.40;;
40122;SDS011;25832;45.490;4.912;2023-08-20T01:47:50;14.98;;;6.78;;
40122;SDS011;25832;45.490;4.912;2023-08-20T01:50:16;9.43;;;6.93;;
40122;SDS011;25832;45.490;4.912;2023-08-20T01:52:41;14.13;;;7.00;;
40122;SDS011;25832;45.490;4.912;2023-08-20T01:55:07;10.68;;;6.43;;
40122;SDS011;25832;45.490;4.912;2023-08-20T01:57:33;8.93;;;6.22;;
40122;SDS011;25832;45.490;4.912;2023-08-20T01:59:59;7.97;;;6.18;;
40122;SDS011;25832;45.490;4.912;2023-08-20T02:02:25;13.57;;;7.00;;
40122;SDS011;25832;45.490;4.912;2023-08-20T02:04:50;9.57;;;6.43;;
40122;SDS011;25832;45.490;4.912;2023-08-20T02:07:16;7.03;;;5.70;;
40122;SDS011;25832;45.490;4.912;2023-08-20T02:09:42;7.78;;;5.53;;
40122;SDS011;25832;45.490;4.912;2023-08-20T02:12:08;11.15;;;6.00;;
40122;SDS011;25832;45.490;4.912;2023-08-20T02:14:34;7.88;;;6.03;;
40122;SDS011;25832;45.490;4.912;2023-08-20T02:17:03;8.50;;;5.72;;
40122;SDS011;25832;45.490;4.912;2023-08-20T02:19:29;9.95;;;6.53;;
40122;SDS011;25832;45.490;4.912;2023-08-20T02:21:55;10.45;;;6.63;;
40122;SDS011;25832;45.490;4.912;2023-08-20T02:24:21;8.85;;;6.43;;
40122;SDS011;25832;45.490;4.912;2023-08-20T02:26:46;9.32;;;5.53;;
40122;SDS011;25832;45.490;4.912;2023-08-20T02:29:12;8.07;;;7.00;;
40122;SDS011;25832;45.490;4.912;2023-08-20T02:31:38;8.98;;;5.95;;
40122;SDS011;25832;45.490;4.912;2023-08-20T02:34:03;9.75;;;6.10;;
40122;SDS011;25832;45.490;4.912;2023-08-20T02:36:29;12.10;;;6.20;;
40122;SDS011;25832;45.490;4.912;2023-08-20T02:38:55;9.35;;;6.18;;
40122;SDS011;25832;45.490;4.912;2023-08-20T02:41:21;12.63;;;5.38;;
40122;SDS011;25832;45.490;4.912;2023-08-20T02:43:47;7.82;;;6.22;;
40122;SDS011;25832;45.490;4.912;2023-08-20T02:46:13;7.75;;;6.15;;
40122;SDS011;25832;45.490;4.912;2023-08-20T02:48:39;9.40;;;6.28;;
40122;SDS011;25832;45.490;4.912;2023-08-20T02:51:05;12.38;;;6.10;;
40122;SDS011;25832;45.490;4.912;2023-08-20T02:53:31;8.18;;;6.18;;
40122;SDS011;25832;45.490;4.912;2023-08-20T02:55:56;11.07;;;6.63;;
40122;SDS011;25832;45.490;4.912;2023-08-20T02:58:22;9.63;;;5.78;;
40122;SDS011;25832;45.490;4.912;2023-08-20T03:00:48;8.32;;;6.28;;
40122;SDS011;25832;45.490;4.912;2023-08-20T03:03:13;13.32;;;6.78;;
40122;SDS011;25832;45.490;4.912;2023-08-20T03:05:39;10.70;;;6.65;;
40122;SDS011;25832;45.490;4.912;2023-08-20T03:08:05;10.93;;;6.60;;
40122;SDS011;25832;45.490;4.912;2023-08-20T03:10:31;12.27;;;5.97;;
40122;SDS011;25832;45.490;4.912;2023-08-20T03:12:58;15.20;;;6.50;;
40122;SDS011;25832;45.490;4.912;2023-08-20T03:15:24;7.60;;;5.68;;
40122;SDS011;25832;45.490;4.912;2023-08-20T03:17:50;10.48;;;6.57;;
40122;SDS011;25832;45.490;4.912;2023-08-20T03:20:15;10.40;;;6.00;;
40122;SDS011;25832;45.490;4.912;2023-08-20T03:22:41;9.57;;;7.47;;
40122;SDS011;25832;45.490;4.912;2023-08-20T03:25:07;9.82;;;6.72;;
40122;SDS011;25832;45.490;4.912;2023-08-20T03:27:33;8.70;;;6.30;;
40122;SDS011;25832;45.490;4.912;2023-08-20T03:29:58;9.05;;;6.50;;
40122;SDS011;25832;45.490;4.912;2023-08-20T03:32:24;6.63;;;5.57;;
40122;SDS011;25832;45.490;4.912;2023-08-20T03:34:50;9.77;;;7.20;;
40122;SDS011;25832;45.490;4.912;2023-08-20T03:37:16;7.40;;;6.35;;
40122;SDS011;25832;45.490;4.912;2023-08-20T03:39:42;11.65;;;6.65;;
40122;SDS011;25832;45.490;4.912;2023-08-20T03:42:07;10.13;;;6.80;;
40122;SDS011;25832;45.490;4.912;2023-08-20T03:44:33;12.48;;;7.05;;
40122;SDS011;25832;45.490;4.912;2023-08-20T03:46:58;9.25;;;5.75;;
40122;SDS011;25832;45.490;4.912;2023-08-20T03:49:24;16.55;;;6.15;;
40122;SDS011;25832;45.490;4.912;2023-08-20T03:51:50;8.25;;;6.60;;
40122;SDS011;25832;45.490;4.912;2023-08-20T03:54:15;9.20;;;6.07;;
40122;SDS011;25832;45.490;4.912;2023-08-20T03:56:41;14.05;;;6.28;;
40122;SDS011;25832;45.490;4.912;2023-08-20T03:59:07;8.57;;;6.32;;
40122;SDS011;25832;45.490;4.912;2023-08-20T04:01:33;12.20;;;6.93;;
40122;SDS011;25832;45.490;4.912;2023-08-20T04:04:01;10.25;;;7.00;;
40122;SDS011;25832;45.490;4.912;2023-08-20T04:06:26;10.32;;;6.60;;
40122;SDS011;25832;45.490;4.912;2023-08-20T04:08:52;8.55;;;6.22;;
40122;SDS011;25832;45.490;4.912;2023-08-20T04:11:17;10.40;;;7.18;;
40122;SDS011;25832;45.490;4.912;2023-08-20T04:13:43;10.40;;;6.40;;
40122;SDS011;25832;45.490;4.912;2023-08-20T04:16:10;11.55;;;7.22;;
40122;SDS011;25832;45.490;4.912;2023-08-20T04:18:35;9.63;;;5.75;;
40122;SDS011;25832;45.490;4.912;2023-08-20T04:21:01;8.32;;;6.43;;
40122;SDS011;25832;45.490;4.912;2023-08-20T04:23:27;9.35;;;5.97;;
40122;SDS011;25832;45.490;4.912;2023-08-20T04:25:52;8.40;;;6.38;;
40122;SDS011;25832;45.490;4.912;2023-08-20T04:28:18;9.35;;;6.65;;
40122;SDS011;25832;45.490;4.912;2023-08-20T04:30:44;7.32;;;6.13;;
40122;SDS011;25832;45.490;4.912;2023-08-20T04:33:09;8.27;;;6.10;;
40122;SDS011;25832;45.490;4.912;2023-08-20T04:35:35;10.95;;;7.15;;
40122;SDS011;25832;45.490;4.912;2023-08-20T04:38:01;8.70;;;6.35;;
40122;SDS011;25832;45.490;4.912;2023-08-20T04:40:27;10.82;;;7.00;;
40122;SDS011;25832;45.490;4.912;2023-08-20T04:42:53;13.82;;;6.70;;
40122;SDS011;25832;45.490;4.912;2023-08-20T04:45:18;9.73;;;6.57;;
40122;SDS011;25832;45.490;4.912;2023-08-20T04:47:45;12.05;;;6.80;;
40122;SDS011;25832;45.490;4.912;2023-08-20T04:50:11;12.63;;;7.40;;
40122;SDS011;25832;45.490;4.912;2023-08-20T04:52:38;9.65;;;6.97;;
40122;SDS011;25832;45.490;4.912;2023-08-20T04:55:04;14.02;;;7.20;;
40122;SDS011;25832;45.490;4.912;2023-08-20T04:57:32;9.13;;;7.20;;
40122;SDS011;25832;45.490;4.912;2023-08-20T04:59:57;13.32;;;7.10;;
40122;SDS011;25832;45.490;4.912;2023-08-20T05:02:23;11.40;;;7.45;;
40122;SDS011;25832;45.490;4.912;2023-08-20T05:04:49;8.43;;;5.97;;
40122;SDS011;25832;45.490;4.912;2023-08-20T05:07:14;15.20;;;7.05;;
40122;SDS011;25832;45.490;4.912;2023-08-20T05:09:40;10.10;;;7.10;;
40122;SDS011;25832;45.490;4.912;2023-08-20T05:12:06;11.85;;;7.85;;
40122;SDS011;25832;45.490;4.912;2023-08-20T05:14:32;12.73;;;7.82;;
40122;SDS011;25832;45.490;4.912;2023-08-20T05:16:57;9.27;;;7.32;;
40122;SDS011;25832;45.490;4.912;2023-08-20T05:19:23;20.48;;;8.35;;
40122;SDS011;25832;45.490;4.912;2023-08-20T05:21:49;13.20;;;7.88;;
40122;SDS011;25832;45.490;4.912;2023-08-20T05:24:14;9.80;;;7.30;;
40122;SDS011;25832;45.490;4.912;2023-08-20T05:26:40;11.73;;;7.13;;
40122;SDS011;25832;45.490;4.912;2023-08-20T05:29:06;12.23;;;7.38;;
40122;SDS011;25832;45.490;4.912;2023-08-20T05:31:31;10.02;;;7.93;;
40122;SDS011;25832;45.490;4.912;2023-08-20T05:33:57;13.82;;;7.95;;
40122;SDS011;25832;45.490;4.912;2023-08-20T05:36:23;9.82;;;7.20;;
40122;SDS011;25832;45.490;4.912;2023-08-20T05:38:49;21.75;;;7.63;;
40122;SDS011;25832;45.490;4.912;2023-08-20T05:41:14;10.60;;;6.80;;
40122;SDS011;25832;45.490;4.912;2023-08-20T05:43:40;10.35;;;6.60;;
40122;SDS011;25832;45.490;4.912;2023-08-20T05:46:06;8.75;;;6.97;;
40122;SDS011;25832;45.490;4.912;2023-08-20T05:48:31;10.20;;;7.03;;
40122;SDS011;25832;45.490;4.912;2023-08-20T05:50:57;7.68;;;6.47;;
40122;SDS011;25832;45.490;4.912;2023-08-20T05:53:23;12.57;;;6.07;;
40122;SDS011;25832;45.490;4.912;2023-08-20T05:55:48;7.78;;;6.43;;
40122;SDS011;25832;45.490;4.912;2023-08-20T05:58:14;9.35;;;5.80;;
40122;SDS011;25832;45.490;4.912;2023-08-20T06:00:40;11.82;;;6.53;;
40122;SDS011;25832;45.490;4.912;2023-08-20T06:03:05;13.27;;;6.22;;
40122;SDS011;25832;45.490;4.912;2023-08-20T06:05:32;8.32;;;5.72;;
40122;SDS011;25832;45.490;4.912;2023-08-20T06:07:58;9.82;;;6.60;;
40122;SDS011;25832;45.490;4.912;2023-08-20T06:10:24;9.48;;;6.38;;
40122;SDS011;25832;45.490;4.912;2023-08-20T06:12:51;9.30;;;6.10;;
40122;SDS011;25832;45.490;4.912;2023-08-20T06:15:17;10.68;;;6.75;;
40122;SDS011;25832;45.490;4.912;2023-08-20T06:17:42;10.20;;;5.95;;
40122;SDS011;25832;45.490;4.912;2023-08-20T06:20:08;8.65;;;6.25;;
40122;SDS011;25832;45.490;4.912;2023-08-20T06:22:36;10.38;;;6.63;;
40122;SDS011;25832;45.490;4.912;2023-08-20T06:25:02;9.10;;;6.25;;
40122;SDS011;25832;45.490;4.912;2023-08-20T06:27:29;12.25;;;7.22;;
40122;SDS011;25832;45.490;4.912;2023-08-20T06:29:54;10.07;;;5.88;;
40122;SDS011;25832;45.490;4.912;2023-08-20T06:32:20;11.70;;;6.82;;
40122;SDS011;25832;45.490;4.912;2023-08-20T06:34:46;7.18;;;6.22;;
40122;SDS011;25832;45.490;4.912;2023-08-20T06:37:11;8.88;;;6.50;;
40122;SDS011;25832;45.490;4.912;2023-08-20T06:39:37;10.98;;;6.60;;
40122;SDS011;25832;45.490;4.912;2023-08-20T06:42:03;8.32;;;6.30;;
40122;SDS011;25832;45.490;4.912;2023-08-20T06:44:29;13.30;;;7.63;;
40122;SDS011;25832;45.490;4.912;2023-08-20T06:46:54;7.95;;;5.90;;
40122;SDS011;25832;45.490;4.912;2023-08-20T06:49:20;7.65;;;6.35;;
40122;SDS011;25832;45.490;4.912;2023-08-20T06:51:45;7.90;;;6.30;;
40122;SDS011;25832;45.490;4.912;2023-08-20T06:54:11;5.97;;;4.97;;
40122;SDS011;25832;45.490;4.912;2023-08-20T06:56:37;7.88;;;6.22;;
40122;SDS011;25832;45.490;4.912;2023-08-20T06:59:02;8.25;;;6.20;;
40122;SDS011;25832;45.490;4.912;2023-08-20T07:01:29;7.88;;;6.60;;
40122;SDS011;25832;45.490;4.912;2023-08-20T07:03:54;12.32;;;7.18;;
40122;SDS011;25832;45.490;4.912;2023-08-20T07:06:20;6.80;;;5.72;;
40122;SDS011;25832;45.490;4.912;2023-08-20T07:08:45;11.63;;;6.30;;
40122;SDS011;25832;45.490;4.912;2023-08-20T07:11:11;8.70;;;6.55;;
40122;SDS011;25832;45.490;4.912;2023-08-20T07:13:37;9.93;;;6.70;;
40122;SDS011;25832;45.490;4.912;2023-08-20T07:16:03;9.90;;;6.50;;
40122;SDS011;25832;45.490;4.912;2023-08-20T07:18:29;8.60;;;6.43;;
40122;SDS011;25832;45.490;4.912;2023-08-20T07:20:55;10.63;;;6.57;;
40122;SDS011;25832;45.490;4.912;2023-08-20T07:23:20;11.43;;;6.65;;
40122;SDS011;25832;45.490;4.912;2023-08-20T07:25:47;8.75;;;7.03;;
40122;SDS011;25832;45.490;4.912;2023-08-20T07:28:13;9.32;;;6.90;;
40122;SDS011;25832;45.490;4.912;2023-08-20T07:30:39;9.05;;;6.78;;
40122;SDS011;25832;45.490;4.912;2023-08-20T07:33:05;11.55;;;6.68;;
40122;SDS011;25832;45.490;4.912;2023-08-20T07:35:32;8.77;;;7.22;;
40122;SDS011;25832;45.490;4.912;2023-08-20T07:37:58;8.38;;;5.97;;
40122;SDS011;25832;45.490;4.912;2023-08-20T07:40:24;15.75;;;7.60;;
40122;SDS011;25832;45.490;4.912;2023-08-20T07:42:50;19.20;;;7.40;;
40122;SDS011;25832;45.490;4.912;2023-08-20T07:45:16;6.85;;;5.75;;
40122;SDS011;25832;45.490;4.912;2023-08-20T07:47:42;11.30;;;7.70;;
40122;SDS011;25832;45.490;4.912;2023-08-20T07:50:07;11.30;;;7.03;;
40122;SDS011;25832;45.490;4.912;2023-08-20T07:52:33;7.32;;;6.40;;
40122;SDS011;25832;45.490;4.912;2023-08-20T07:54:59;10.32;;;7.43;;
40122;SDS011;25832;45.490;4.912;2023-08-20T07:57:25;10.32;;;6.65;;
40122;SDS011;25832;45.490;4.912;2023-08-20T07:59:51;11.25;;;7.03;;
40122;SDS011;25832;45.490;4.912;2023-08-20T08:02:17;8.80;;;6.82;;
40122;SDS011;25832;45.490;4.912;2023-08-20T08:04:42;8.65;;;6.85;;
40122;SDS011;25832;45.490;4.912;2023-08-20T08:07:09;9.35;;;7.07;;
40122;SDS011;25832;45.490;4.912;2023-08-20T08:09:35;9.98;;;7.40;;
40122;SDS011;25832;45.490;4.912;2023-08-20T08:12:01;9.00;;;6.88;;
40122;SDS011;25832;45.490;4.912;2023-08-20T08:14:27;8.90;;;6.93;;
40122;SDS011;25832;45.490;4.912;2023-08-20T08:16:53;11.52;;;8.00;;
40122;SDS011;25832;45.490;4.912;2023-08-20T08:19:19;8.43;;;7.60;;
40122;SDS011;25832;45.490;4.912;2023-08-20T08:21:47;11.18;;;7.88;;
40122;SDS011;25832;45.490;4.912;2023-08-20T08:24:14;10.00;;;7.13;;
40122;SDS011;25832;45.490;4.912;2023-08-20T08:26:40;12.05;;;7.43;;
40122;SDS011;25832;45.490;4.912;2023-08-20T08:29:06;7.90;;;7.10;;
40122;SDS011;25832;45.490;4.912;2023-08-20T08:31:33;11.05;;;7.50;;
40122;SDS011;25832;45.490;4.912;2023-08-20T08:33:59;8.93;;;6.70;;
40122;SDS011;25832;45.490;4.912;2023-08-20T08:36:26;6.88;;;6.18;;
40122;SDS011;25832;45.490;4.912;2023-08-20T08:38:52;11.57;;;7.05;;
40122;SDS011;25832;45.490;4.912;2023-08-20T08:41:18;7.70;;;6.53;;
40122;SDS011;25832;45.490;4.912;2023-08-20T08:43:48;7.90;;;7.03;;
40122;SDS011;25832;45.490;4.912;2023-08-20T08:46:14;8.13;;;6.43;;
40122;SDS011;25832;45.490;4.912;2023-08-20T08:48:44;8.65;;;6.60;;
40122;SDS011;25832;45.490;4.912;2023-08-20T08:51:11;10.73;;;6.70;;
40122;SDS011;25832;45.490;4.912;2023-08-20T08:53:38;8.88;;;7.72;;
40122;SDS011;25832;45.490;4.912;2023-08-20T08:56:04;6.63;;;6.03;;
40122;SDS011;25832;45.490;4.912;2023-08-20T08:58:30;7.57;;;6.70;;
40122;SDS011;25832;45.490;4.912;2023-08-20T09:00:57;7.45;;;6.72;;
40122;SDS011;25832;45.490;4.912;2023-08-20T09:03:23;8.20;;;5.88;;
40122;SDS011;25832;45.490;4.912;2023-08-20T09:05:50;11.50;;;7.15;;
40122;SDS011;25832;45.490;4.912;2023-08-20T09:08:24;9.65;;;6.55;;
40122;SDS011;25832;45.490;4.912;2023-08-20T09:10:53;14.43;;;6.13;;
40122;SDS011;25832;45.490;4.912;2023-08-20T09:13:23;9.73;;;6.65;;
40122;SDS011;25832;45.490;4.912;2023-08-20T09:18:16;6.55;;;5.82;;
40122;SDS011;25832;45.490;4.912;2023-08-20T09:20:42;9.13;;;6.72;;
40122;SDS011;25832;45.490;4.912;2023-08-20T09:23:11;7.95;;;6.40;;
40122;SDS011;25832;45.490;4.912;2023-08-20T09:25:38;7.63;;;5.78;;
40122;SDS011;25832;45.490;4.912;2023-08-20T09:28:04;6.63;;;5.90;;
40122;SDS011;25832;45.490;4.912;2023-08-20T09:30:30;9.32;;;6.05;;
40122;SDS011;25832;45.490;4.912;2023-08-20T09:33:12;7.32;;;5.95;;
40122;SDS011;25832;45.490;4.912;2023-08-20T09:35:59;7.78;;;6.55;;
40122;SDS011;25832;45.490;4.912;2023-08-20T09:38:24;7.03;;;6.03;;
40122;SDS011;25832;45.490;4.912;2023-08-20T09:40:51;6.80;;;5.88;;
40122;SDS011;25832;45.490;4.912;2023-08-20T09:43:18;6.72;;;5.75;;
40122;SDS011;25832;45.490;4.912;2023-08-20T09:45:46;8.48;;;6.22;;
40122;SDS011;25832;45.490;4.912;2023-08-20T09:48:13;7.80;;;6.05;;
40122;SDS011;25832;45.490;4.912;2023-08-20T09:50:46;7.18;;;6.13;;
40122;SDS011;25832;45.490;4.912;2023-08-20T09:53:22;7.60;;;6.00;;
40122;SDS011;25832;45.490;4.912;2023-08-20T09:55:50;10.10;;;5.95;;
40122;SDS011;25832;45.490;4.912;2023-08-20T09:58:17;6.90;;;5.47;;
40122;SDS011;25832;45.490;4.912;2023-08-20T10:00:46;5.95;;;5.38;;
40122;SDS011;25832;45.490;4.912;2023-08-20T10:03:15;6.40;;;5.68;;
40122;SDS011;25832;45.490;4.912;2023-08-20T10:05:41;9.77;;;5.72;;
40122;SDS011;25832;45.490;4.912;2023-08-20T10:08:07;10.65;;;7.18;;
40122;SDS011;25832;45.490;4.912;2023-08-20T10:10:33;11.02;;;5.70;;
40122;SDS011;25832;45.490;4.912;2023-08-20T10:12:59;5.82;;;5.22;;
40122;SDS011;25832;45.490;4.912;2023-08-20T10:15:25;11.02;;;5.70;;
40122;SDS011;25832;45.490;4.912;2023-08-20T10:17:53;5.75;;;5.13;;
40122;SDS011;25832;45.490;4.912;2023-08-20T10:20:18;6.18;;;5.50;;
40122;SDS011;25832;45.490;4.912;2023-08-20T10:22:45;8.07;;;6.10;;
40122;SDS011;25832;45.490;4.912;2023-08-20T10:25:24;9.82;;;5.07;;
40122;SDS011;25832;45.490;4.912;2023-08-20T10:27:51;9.23;;;5.97;;
40122;SDS011;25832;45.490;4.912;2023-08-20T10:30:22;8.50;;;6.72;;
40122;SDS011;25832;45.490;4.912;2023-08-20T10:35:18;8.20;;;5.97;;
40122;SDS011;25832;45.490;4.912;2023-08-20T10:38:03;6.35;;;5.75;;
40122;SDS011;25832;45.490;4.912;2023-08-20T10:46:07;6.68;;;5.50;;
40122;SDS011;25832;45.490;4.912;2023-08-20T10:48:48;6.40;;;5.30;;
40122;SDS011;25832;45.490;4.912;2023-08-20T10:51:18;5.40;;;4.90;;
40122;SDS011;25832;45.490;4.912;2023-08-20T10:56:37;9.82;;;6.13;;
40122;SDS011;25832;45.490;4.912;2023-08-20T10:59:50;6.95;;;5.30;;
40122;SDS011;25832;45.490;4.912;2023-08-20T11:01:56;8.32;;;5.07;;
40122;SDS011;25832;45.490;4.912;2023-08-20T11:04:24;8.43;;;5.38;;
40122;SDS011;25832;45.490;4.912;2023-08-20T11:06:53;7.13;;;5.22;;
40122;SDS011;25832;45.490;4.912;2023-08-20T11:09:24;6.45;;;5.57;;
40122;SDS011;25832;45.490;4.912;2023-08-20T11:11:51;8.10;;;5.80;;
40122;SDS011;25832;45.490;4.912;2023-08-20T11:14:18;8.05;;;5.57;;
40122;SDS011;25832;45.490;4.912;2023-08-20T11:16:44;8.05;;;5.72;;
40122;SDS011;25832;45.490;4.912;2023-08-20T11:19:11;11.50;;;6.28;;
40122;SDS011;25832;45.490;4.912;2023-08-20T11:21:38;6.20;;;5.60;;
40122;SDS011;25832;45.490;4.912;2023-08-20T11:24:05;7.97;;;5.53;;
40122;SDS011;25832;45.490;4.912;2023-08-20T11:26:31;6.90;;;5.10;;
40122;SDS011;25832;45.490;4.912;2023-08-20T11:28:59;11.27;;;5.25;;
40122;SDS011;25832;45.490;4.912;2023-08-20T11:31:25;6.97;;;5.20;;
40122;SDS011;25832;45.490;4.912;2023-08-20T11:33:51;5.88;;;5.28;;
40122;SDS011;25832;45.490;4.912;2023-08-20T11:36:17;7.20;;;5.68;;
40122;SDS011;25832;45.490;4.912;2023-08-20T11:38:51;10.57;;;6.78;;
40122;SDS011;25832;45.490;4.912;2023-08-20T11:41:18;7.55;;;5.15;;
40122;SDS011;25832;45.490;4.912;2023-08-20T11:43:45;11.55;;;6.68;;
40122;SDS011;25832;45.490;4.912;2023-08-20T11:46:19;6.80;;;5.20;;
40122;SDS011;25832;45.490;4.912;2023-08-20T11:49:05;7.10;;;5.93;;
40122;SDS011;25832;45.490;4.912;2023-08-20T11:51:35;9.68;;;5.60;;
40122;SDS011;25832;45.490;4.912;2023-08-20T11:54:08;9.25;;;5.53;;
40122;SDS011;25832;45.490;4.912;2023-08-20T11:56:35;6.38;;;5.78;;
40122;SDS011;25832;45.490;4.912;2023-08-20T11:59:08;12.13;;;5.78;;
40122;SDS011;25832;45.490;4.912;2023-08-20T12:01:36;10.07;;;5.40;;
40122;SDS011;25832;45.490;4.912;2023-08-20T12:04:06;7.32;;;5.75;;
40122;SDS011;25832;45.490;4.912;2023-08-20T12:06:33;9.68;;;5.53;;
40122;SDS011;25832;45.490;4.912;2023-08-20T12:09:00;7.63;;;5.82;;
40122;SDS011;25832;45.490;4.912;2023-08-20T12:11:29;7.07;;;5.03;;
40122;SDS011;25832;45.490;4.912;2023-08-20T12:13:56;10.27;;;6.03;;
40122;SDS011;25832;45.490;4.912;2023-08-20T12:16:22;8.75;;;4.70;;
40122;SDS011;25832;45.490;4.912;2023-08-20T12:18:49;12.35;;;5.55;;
40122;SDS011;25832;45.490;4.912;2023-08-20T12:21:15;10.00;;;5.65;;
40122;SDS011;25832;45.490;4.912;2023-08-20T12:23:40;9.35;;;5.68;;
40122;SDS011;25832;45.490;4.912;2023-08-20T12:26:06;13.57;;;6.07;;
40122;SDS011;25832;45.490;4.912;2023-08-20T12:28:33;7.88;;;5.32;;
40122;SDS011;25832;45.490;4.912;2023-08-20T12:30:59;6.97;;;5.50;;
40122;SDS011;25832;45.490;4.912;2023-08-20T12:33:25;6.30;;;5.55;;
40122;SDS011;25832;45.490;4.912;2023-08-20T12:35:53;6.82;;;4.93;;
40122;SDS011;25832;45.490;4.912;2023-08-20T12:38:19;5.63;;;4.83;;
40122;SDS011;25832;45.490;4.912;2023-08-20T12:40:45;9.93;;;5.28;;
40122;SDS011;25832;45.490;4.912;2023-08-20T12:43:11;8.38;;;5.15;;
40122;SDS011;25832;45.490;4.912;2023-08-20T12:45:37;8.93;;;4.88;;
40122;SDS011;25832;45.490;4.912;2023-08-20T12:48:03;7.50;;;5.35;;
40122;SDS011;25832;45.490;4.912;2023-08-20T12:50:30;10.13;;;5.40;;
40122;SDS011;25832;45.490;4.912;2023-08-20T12:52:55;7.72;;;4.90;;
40122;SDS011;25832;45.490;4.912;2023-08-20T12:55:21;9.00;;;4.88;;
40122;SDS011;25832;45.490;4.912;2023-08-20T12:57:54;10.25;;;5.10;;
40122;SDS011;25832;45.490;4.912;2023-08-20T13:00:22;6.90;;;4.40;;
40122;SDS011;25832;45.490;4.912;2023-08-20T13:02:50;6.57;;;4.68;;
40122;SDS011;25832;45.490;4.912;2023-08-20T13:05:16;12.55;;;5.07;;
40122;SDS011;25832;45.490;4.912;2023-08-20T13:07:42;12.07;;;4.72;;
40122;SDS011;25832;45.490;4.912;2023-08-20T13:10:08;8.82;;;5.80;;
40122;SDS011;25832;45.490;4.912;2023-08-20T13:12:34;13.85;;;5.28;;
40122;SDS011;25832;45.490;4.912;2023-08-20T13:15:02;8.20;;;4.95;;
40122;SDS011;25832;45.490;4.912;2023-08-20T13:17:29;7.10;;;4.38;;
40122;SDS011;25832;45.490;4.912;2023-08-20T13:19:55;9.98;;;5.85;;
40122;SDS011;25832;45.490;4.912;2023-08-20T13:22:21;5.93;;;5.13;;
40122;SDS011;25832;45.490;4.912;2023-08-20T13:24:47;6.13;;;4.47;;
40122;SDS011;25832;45.490;4.912;2023-08-20T13:27:13;10.50;;;5.18;;
40122;SDS011;25832;45.490;4.912;2023-08-20T13:29:40;11.43;;;5.13;;
40122;SDS011;25832;45.490;4.912;2023-08-20T13:32:06;9.02;;;5.13;;
40122;SDS011;25832;45.490;4.912;2023-08-20T13:34:31;11.00;;;5.25;;
40122;SDS011;25832;45.490;4.912;2023-08-20T13:36:57;8.43;;;4.75;;
40122;SDS011;25832;45.490;4.912;2023-08-20T13:39:24;7.28;;;4.00;;
40122;SDS011;25832;45.490;4.912;2023-08-20T13:41:50;7.38;;;4.78;;
40122;SDS011;25832;45.490;4.912;2023-08-20T13:44:19;11.63;;;4.95;;
40122;SDS011;25832;45.490;4.912;2023-08-20T13:46:45;12.68;;;5.78;;
40122;SDS011;25832;45.490;4.912;2023-08-20T13:49:10;9.25;;;4.78;;
40122;SDS011;25832;45.490;4.912;2023-08-20T13:51:36;7.70;;;4.50;;
40122;SDS011;25832;45.490;4.912;2023-08-20T13:54:02;7.43;;;4.38;;
40122;SDS011;25832;45.490;4.912;2023-08-20T13:56:28;7.75;;;4.63;;
40122;SDS011;25832;45.490;4.912;2023-08-20T13:58:54;9.00;;;4.75;;
40122;SDS011;25832;45.490;4.912;2023-08-20T14:01:19;11.32;;;5.00;;
40122;SDS011;25832;45.490;4.912;2023-08-20T14:03:45;9.93;;;5.43;;
40122;SDS011;25832;45.490;4.912;2023-08-20T14:06:11;8.57;;;5.38;;
40122;SDS011;25832;45.490;4.912;2023-08-20T14:08:36;8.85;;;4.50;;
40122;SDS011;25832;45.490;4.912;2023-08-20T14:11:02;7.13;;;4.47;;
40122;SDS011;25832;45.490;4.912;2023-08-20T14:13:28;9.85;;;4.70;;
40122;SDS011;25832;45.490;4.912;2023-08-20T14:15:54;10.07;;;5.70;;
40122;SDS011;25832;45.490;4.912;2023-08-20T14:18:19;11.98;;;4.38;;
40122;SDS011;25832;45.490;4.912;2023-08-20T14:20:46;12.65;;;4.97;;
40122;SDS011;25832;45.490;4.912;2023-08-20T14:23:11;6.43;;;4.63;;
40122;SDS011;25832;45.490;4.912;2023-08-20T14:25:37;9.52;;;5.45;;
40122;SDS011;25832;45.490;4.912;2023-08-20T14:28:05;6.20;;;4.65;;
40122;SDS011;25832;45.490;4.912;2023-08-20T14:30:31;8.77;;;5.20;;
40122;SDS011;25832;45.490;4.912;2023-08-20T14:33:00;8.98;;;4.75;;
40122;SDS011;25832;45.490;4.912;2023-08-20T14:35:26;12.70;;;5.30;;
40122;SDS011;25832;45.490;4.912;2023-08-20T14:37:52;5.40;;;4.25;;
40122;SDS011;25832;45.490;4.912;2023-08-20T14:40:19;8.05;;;5.32;;
40122;SDS011;25832;45.490;4.912;2023-08-20T14:42:44;7.45;;;3.95;;
40122;SDS011;25832;45.490;4.912;2023-08-20T14:45:10;7.85;;;4.88;;
40122;SDS011;25832;45.490;4.912;2023-08-20T14:47:36;7.32;;;5.18;;
40122;SDS011;25832;45.490;4.912;2023-08-20T14:50:02;5.00;;;4.10;;
40122;SDS011;25832;45.490;4.912;2023-08-20T14:52:28;9.85;;;4.53;;
40122;SDS011;25832;45.490;4.912;2023-08-20T14:54:54;8.02;;;4.47;;
40122;SDS011;25832;45.490;4.912;2023-08-20T14:57:19;8.02;;;4.88;;
40122;SDS011;25832;45.490;4.912;2023-08-20T14:59:45;8.63;;;4.45;;
40122;SDS011;25832;45.490;4.912;2023-08-20T15:02:11;6.10;;;4.28;;
40122;SDS011;25832;45.490;4.912;2023-08-20T15:04:36;6.07;;;4.63;;